Time;durP1;ratioP1;P1;durP2;ratioP2;P2;SDS_P1;SDS_P2;PMS_P1;PMS_P2;Temp;Humidity;BMP_temperature;BMP_pressure;BME280_temperature;BME280_humidity;BME280_pressure;Samples;Min_cycle;Max_cycle;Signal;HPM_P1;HPM_P2
2021/03/08 00:01:22;;;;;;;11.05;10.32;;;28.10;99.90;;;;;;5075337;28;20070;-59
2021/03/08 00:03:50;;;;;;;10.93;10.23;;;28.30;99.90;;;;;;5074758;28;20089;-59
2021/03/08 00:06:17;;;;;;;11.13;10.13;;;28.30;99.90;;;;;;5074758;28;20098;-62
2021/03/08 00:08:44;;;;;;;10.60;9.88;;;28.20;99.90;;;;;;5074606;28;20039;-60
2021/03/08 00:11:12;;;;;;;11.02;9.27;;;28.10;99.90;;;;;;5074473;28;20050;-59
2021/03/08 00:13:39;;;;;;;10.65;9.88;;;28.30;99.90;;;;;;5074497;28;20021;-62
2021/03/08 00:16:06;;;;;;;9.70;8.82;;;28.40;99.90;;;;;;5074486;28;20020;-61
2021/03/08 00:18:33;;;;;;;9.32;8.73;;;28.30;99.90;;;;;;5074463;28;20017;-60
2021/03/08 00:21:01;;;;;;;9.27;8.60;;;28.30;99.90;;;;;;5074360;28;20074;-60
2021/03/08 00:23:28;;;;;;;9.52;8.80;;;28.40;99.90;;;;;;5074277;28;20366;-59
2021/03/08 00:25:56;;;;;;;9.15;8.45;;;28.50;99.90;;;;;;5073320;28;20024;-59
2021/03/08 00:28:23;;;;;;;8.98;8.07;;;28.60;99.90;;;;;;5073286;28;20016;-59
2021/03/08 00:30:50;;;;;;;9.00;8.30;;;28.70;99.90;;;;;;5074098;28;20024;-59
2021/03/08 00:33:18;;;;;;;9.60;8.90;;;29.00;99.90;;;;;;5074148;28;20029;-59
2021/03/08 00:35:45;;;;;;;8.68;7.97;;;29.20;99.90;;;;;;5073958;28;20029;-59
2021/03/08 00:38:12;;;;;;;9.52;8.75;;;29.40;99.90;;;;;;5074087;28;20025;-60
2021/03/08 00:40:40;;;;;;;8.77;7.97;;;29.30;99.90;;;;;;5073734;28;20045;-60
2021/03/08 00:43:07;;;;;;;8.65;7.63;;;29.60;99.90;;;;;;5073913;28;20031;-60
2021/03/08 00:45:34;;;;;;;8.30;7.70;;;29.70;99.90;;;;;;5073848;28;20047;-60
2021/03/08 00:48:02;;;;;;;7.90;7.45;;;29.80;99.90;;;;;;5073900;28;20017;-59
2021/03/08 00:50:30;;;;;;;8.38;7.75;;;29.80;99.90;;;;;;5073799;28;20044;-59
2021/03/08 00:52:57;;;;;;;9.48;8.60;;;29.90;99.90;;;;;;5073807;28;20020;-60
2021/03/08 00:55:25;;;;;;;8.50;7.80;;;30.20;99.90;;;;;;5074032;28;20350;-59
2021/03/08 00:57:52;;;;;;;8.63;7.68;;;29.70;99.90;;;;;;5072499;28;20024;-59
2021/03/08 01:00:24;;;;;;;9.23;8.52;;;29.40;99.90;;;;;;5073786;28;20020;-60
2021/03/08 01:02:52;;;;;;;11.00;8.35;;;29.80;99.90;;;;;;5073568;28;20427;-59
2021/03/08 01:05:21;;;;;;;8.77;8.02;;;29.90;99.90;;;;;;5073704;28;20029;-60
2021/03/08 01:07:49;;;;;;;9.13;8.20;;;29.90;99.90;;;;;;5073489;28;20028;-60
2021/03/08 01:10:20;;;;;;;9.30;8.55;;;30.10;99.90;;;;;;5073576;28;20024;-60
2021/03/08 01:12:48;;;;;;;9.52;8.82;;;30.30;99.90;;;;;;5073477;28;20108;-58
2021/03/08 01:15:16;;;;;;;9.98;9.20;;;30.20;99.90;;;;;;5073450;28;20017;-59
2021/03/08 01:17:43;;;;;;;10.68;9.73;;;30.40;99.90;;;;;;5073450;28;20028;-59
2021/03/08 01:20:17;;;;;;;10.10;9.30;;;30.00;99.90;;;;;;5073370;28;20046;-59
2021/03/08 01:22:45;;;;;;;9.93;9.07;;;30.10;99.90;;;;;;5073337;28;20029;-60
2021/03/08 01:25:32;;;;;;;9.80;8.90;;;30.20;99.90;;;;;;5073336;28;20095;-60
2021/03/08 01:27:59;;;;;;;8.77;8.18;;;30.50;99.90;;;;;;5073229;28;20028;-59
2021/03/08 01:30:33;;;;;;;8.50;7.93;;;30.70;99.90;;;;;;5073225;28;20028;-57
2021/03/08 01:33:00;;;;;;;8.32;7.70;;;31.10;99.90;;;;;;5073204;28;20032;-59
2021/03/08 01:35:28;;;;;;;8.48;7.78;;;30.50;99.90;;;;;;5073096;28;20067;-59
2021/03/08 01:37:55;;;;;;;9.07;8.38;;;30.30;99.90;;;;;;5073143;28;20071;-58
2021/03/08 01:40:26;;;;;;;8.88;8.27;;;30.50;99.90;;;;;;5072865;28;20044;-58
2021/03/08 01:42:54;;;;;;;8.85;8.15;;;30.60;99.90;;;;;;5073142;28;20487;-59
2021/03/08 01:45:23;;;;;;;7.80;7.30;;;30.70;99.90;;;;;;5072999;28;20029;-60
2021/03/08 01:47:52;;;;;;;8.93;8.32;;;31.00;99.90;;;;;;5073061;28;20023;-59
2021/03/08 01:50:36;;;;;;;9.13;8.52;;;31.30;99.90;;;;;;5073056;28;20032;-59
2021/03/08 01:53:06;;;;;;;8.77;7.95;;;31.20;99.80;;;;;;5073136;28;20021;-62
2021/03/08 01:55:34;;;;;;;9.40;8.60;;;31.10;99.70;;;;;;5073057;28;20056;-59
2021/03/08 01:58:02;;;;;;;8.88;8.10;;;31.40;99.90;;;;;;5072951;28;20021;-59
2021/03/08 02:00:32;;;;;;;8.73;7.90;;;31.10;99.50;;;;;;5072944;28;20016;-59
2021/03/08 02:03:00;;;;;;;8.35;7.70;;;31.20;99.70;;;;;;5072934;28;20031;-58
2021/03/08 02:05:31;;;;;;;8.93;8.32;;;31.20;99.70;;;;;;5072943;28;20107;-58
2021/03/08 02:07:59;;;;;;;9.25;8.63;;;30.80;99.40;;;;;;5073271;28;20025;-58
2021/03/08 02:10:29;;;;;;;9.20;8.48;;;30.50;99.90;;;;;;5072694;28;20025;-58
2021/03/08 02:13:37;;;;;;;9.10;8.20;;;30.70;99.90;;;;;;5071383;28;20559;-58
2021/03/08 02:16:23;;;;;;;9.13;8.20;;;30.90;99.60;;;;;;5072787;28;20117;-58
2021/03/08 02:19:09;;;;;;;8.98;8.18;;;31.50;99.20;;;;;;5072751;28;20021;-59
2021/03/08 02:21:56;;;;;;;8.93;8.35;;;31.10;98.90;;;;;;5072955;28;20025;-58
2021/03/08 02:24:26;;;;;;;9.38;8.25;;;31.30;99.10;;;;;;5073014;28;20071;-58
2021/03/08 02:26:53;;;;;;;;;;;31.30;99.20;;;;;;5073276;28;20100;-58
2021/03/08 02:29:51;;;;;;;9.70;8.70;;;31.60;99.20;;;;;;5072610;28;20332;-62
2021/03/08 02:32:33;;;;;;;11.52;8.57;;;32.00;98.70;;;;;;5072883;28;20519;-58
2021/03/08 02:35:06;;;;;;;9.57;8.80;;;32.50;98.80;;;;;;5071305;28;20129;-58
2021/03/08 02:37:50;;;;;;;9.65;8.88;;;32.00;98.40;;;;;;5071343;28;20478;-58
2021/03/08 02:40:24;;;;;;;8.90;8.05;;;31.90;96.90;;;;;;5072379;28;20477;-60
2021/03/08 02:42:55;;;;;;;8.60;8.00;;;31.90;97.30;;;;;;5072772;28;20029;-58
2021/03/08 02:45:26;;;;;;;8.18;7.45;;;32.10;97.50;;;;;;5072535;28;20021;-59
2021/03/08 02:47:56;;;;;;;8.48;7.90;;;32.20;97.50;;;;;;5072800;28;20024;-58
2021/03/08 02:50:33;;;;;;;8.20;7.60;;;32.10;97.30;;;;;;5072606;28;20103;-58
2021/03/08 02:53:07;;;;;;;8.32;7.57;;;31.50;97.00;;;;;;5076105;28;20024;-58
2021/03/08 02:55:52;;;;;;;7.40;6.80;;;31.60;97.70;;;;;;5076045;28;20028;-58
2021/03/08 02:58:23;;;;;;;8.25;7.32;;;31.40;97.20;;;;;;5076140;28;20083;-58
2021/03/08 03:00:51;;;;;;;7.18;6.60;;;31.20;97.60;;;;;;5075230;28;20024;-58
2021/03/08 03:03:21;;;;;;;7.55;6.88;;;31.10;98.00;;;;;;5075702;28;20031;-58
2021/03/08 03:05:49;;;;;;;7.65;7.05;;;31.00;98.20;;;;;;5074396;28;20418;-58
2021/03/08 03:08:20;;;;;;;7.93;7.22;;;31.10;97.80;;;;;;5075722;28;20025;-57
2021/03/08 03:10:48;;;;;;;7.78;7.07;;;31.10;97.90;;;;;;5075548;28;20070;-57
2021/03/08 03:13:19;;;;;;;6.90;6.30;;;31.30;97.90;;;;;;5075707;28;20078;-58
2021/03/08 03:15:47;;;;;;;7.63;7.03;;;31.20;97.70;;;;;;5075650;28;20020;-59
2021/03/08 03:18:17;;;;;;;7.30;6.55;;;31.10;98.10;;;;;;5075585;28;20478;-58
2021/03/08 03:20:47;;;;;;;6.90;6.30;;;31.00;98.10;;;;;;5075534;28;20046;-58
2021/03/08 03:23:15;;;;;;;6.85;6.15;;;30.90;97.80;;;;;;5075538;28;20021;-58
2021/03/08 03:25:44;;;;;;;6.13;5.75;;;30.80;98.20;;;;;;5075558;28;20089;-59
2021/03/08 03:28:12;;;;;;;7.97;6.75;;;30.60;98.10;;;;;;5075443;28;20013;-59
2021/03/08 03:30:39;;;;;;;8.00;7.20;;;30.40;98.50;;;;;;5075392;28;20023;-59
2021/03/08 03:33:08;;;;;;;8.27;7.47;;;30.30;99.00;;;;;;5075936;28;20044;-59
2021/03/08 03:35:35;;;;;;;7.28;6.70;;;30.10;98.00;;;;;;5075200;28;20040;-58
2021/03/08 03:38:04;;;;;;;8.18;7.50;;;30.00;98.80;;;;;;5075222;28;20016;-59
2021/03/08 03:40:31;;;;;;;8.63;7.72;;;29.80;98.70;;;;;;5075012;28;20056;-59
2021/03/08 03:43:01;;;;;;;8.15;7.50;;;29.60;99.30;;;;;;5075332;28;20412;-58
2021/03/08 03:45:29;;;;;;;8.10;7.50;;;29.70;99.20;;;;;;5075050;28;20104;-59
2021/03/08 03:47:56;;;;;;;8.23;7.63;;;29.60;99.50;;;;;;5075069;28;20078;-59
2021/03/08 03:50:26;;;;;;;7.72;7.18;;;29.60;99.70;;;;;;5074947;28;20027;-59
2021/03/08 03:52:53;;;;;;;8.25;7.55;;;29.50;99.70;;;;;;5074930;28;20025;-59
2021/03/08 03:55:23;;;;;;;7.20;6.70;;;29.50;99.80;;;;;;5075018;28;20104;-59
2021/03/08 03:57:56;;;;;;;7.70;6.90;;;29.50;99.50;;;;;;5075068;28;20021;-59
2021/03/08 04:00:25;;;;;;;7.25;6.60;;;29.50;99.90;;;;;;5075153;28;20031;-59
2021/03/08 04:03:14;;;;;;;7.13;6.53;;;29.60;99.90;;;;;;5074645;28;20041;-59
2021/03/08 04:05:43;;;;;;;7.78;7.07;;;29.50;99.60;;;;;;5075413;28;20368;-59
2021/03/08 04:08:16;;;;;;;7.32;6.72;;;29.50;99.80;;;;;;5074891;28;20020;-59
2021/03/08 04:10:46;;;;;;;7.60;7.00;;;29.50;99.90;;;;;;5074853;28;20108;-59
2021/03/08 04:13:15;;;;;;;8.65;7.22;;;29.50;99.90;;;;;;5074401;28;20146;-59
2021/03/08 04:15:42;;;;;;;7.90;7.50;;;29.40;99.90;;;;;;5074420;28;20028;-59
2021/03/08 04:18:13;;;;;;;7.78;7.18;;;29.50;99.90;;;;;;5074973;28;20260;-59
2021/03/08 04:20:42;;;;;;;8.00;7.40;;;29.50;99.90;;;;;;5074295;28;20017;-59
2021/03/08 04:23:12;;;;;;;8.13;7.60;;;29.50;99.90;;;;;;5074130;28;20082;-59
2021/03/08 04:25:45;;;;;;;8.65;8.05;;;29.80;99.90;;;;;;5072932;28;20021;-63
2021/03/08 04:28:14;;;;;;;8.30;7.70;;;30.10;99.90;;;;;;5074748;28;20028;-61
2021/03/08 04:30:45;;;;;;;8.20;7.68;;;30.20;99.90;;;;;;5074112;28;20542;-60
2021/03/08 04:33:13;;;;;;;8.02;7.53;;;30.40;99.90;;;;;;5074486;28;20078;-59
2021/03/08 04:35:42;;;;;;;7.78;7.15;;;30.70;99.60;;;;;;5074185;28;20024;-60
2021/03/08 04:38:11;;;;;;;7.70;7.18;;;30.80;99.70;;;;;;5074102;28;20081;-59
2021/03/08 04:40:39;;;;;;;7.93;7.28;;;31.00;99.80;;;;;;5073822;28;20045;-59
2021/03/08 04:43:07;;;;;;;8.13;7.43;;;31.10;99.50;;;;;;5073872;28;20039;-59
2021/03/08 04:45:35;;;;;;;7.88;7.38;;;31.10;99.70;;;;;;5072568;28;20032;-59
2021/03/08 04:48:03;;;;;;;7.70;7.20;;;31.20;99.70;;;;;;5073799;28;20058;-59
2021/03/08 04:50:32;;;;;;;7.80;7.20;;;31.10;99.50;;;;;;5073746;28;20552;-59
2021/03/08 04:53:00;;;;;;;8.30;7.65;;;30.80;99.90;;;;;;5073880;28;20027;-59
2021/03/08 04:55:30;;;;;;;8.70;8.10;;;30.40;99.90;;;;;;5073757;28;20384;-59
2021/03/08 04:57:58;;;;;;;8.63;7.95;;;30.20;99.90;;;;;;5073733;28;20013;-59
2021/03/08 05:00:26;;;;;;;9.95;8.00;;;29.80;99.90;;;;;;5073552;28;20124;-60
2021/03/08 05:02:56;;;;;;;8.52;7.78;;;29.70;99.90;;;;;;5073910;28;20020;-59
2021/03/08 05:05:26;;;;;;;8.50;7.70;;;29.50;99.90;;;;;;5073933;28;20033;-60
2021/03/08 05:08:05;;;;;;;8.57;7.95;;;29.20;99.90;;;;;;5073764;28;20028;-59
2021/03/08 05:10:37;;;;;;;7.93;7.23;;;28.80;99.90;;;;;;5073600;28;20021;-59
2021/03/08 05:13:08;;;;;;;8.70;7.97;;;28.50;99.90;;;;;;5073668;28;20319;-59
2021/03/08 05:15:36;;;;;;;8.50;7.78;;;28.60;99.90;;;;;;5073047;28;20168;-59
2021/03/08 05:18:06;;;;;;;8.57;7.93;;;28.60;99.90;;;;;;5074016;28;20020;-58
2021/03/08 05:20:36;;;;;;;8.67;7.97;;;28.50;99.90;;;;;;5073286;28;20021;-59
2021/03/08 05:23:03;;;;;;;8.75;8.15;;;28.50;99.90;;;;;;5073493;28;20733;-59
2021/03/08 05:25:32;;;;;;;8.85;8.18;;;28.50;99.90;;;;;;5073232;28;20107;-59
2021/03/08 05:28:01;;;;;;;8.90;8.10;;;28.40;99.90;;;;;;5073251;28;20020;-58
2021/03/08 05:30:29;;;;;;;8.55;7.82;;;28.40;99.90;;;;;;5073193;28;20389;-59
2021/03/08 05:33:03;;;;;;;8.35;7.85;;;28.20;99.90;;;;;;5073239;28;20074;-59
2021/03/08 05:35:31;;;;;;;8.57;7.95;;;28.10;99.90;;;;;;5073277;28;20451;-59
2021/03/08 05:38:01;;;;;;;8.45;7.85;;;28.10;99.90;;;;;;5073153;28;20025;-60
2021/03/08 05:40:51;;;;;;;8.83;8.23;;;28.00;99.90;;;;;;5072991;28;20024;-59
2021/03/08 05:43:20;;;;;;;7.72;7.18;;;28.10;99.90;;;;;;5073024;28;20550;-59
2021/03/08 05:45:57;;;;;;;7.65;7.05;;;27.80;99.90;;;;;;5071729;28;20403;-61
2021/03/08 05:48:51;;;;;;;7.80;7.30;;;27.80;99.90;;;;;;5073200;28;20044;-59
2021/03/08 05:51:38;;;;;;;8.13;7.57;;;27.60;99.90;;;;;;5073205;28;20036;-59
2021/03/08 05:54:15;;;;;;;8.13;7.63;;;27.60;99.90;;;;;;5073147;28;20027;-59
2021/03/08 05:57:14;;;;;;;8.63;7.80;;;27.20;99.90;;;;;;5073420;28;20078;-59
2021/03/08 06:00:02;;;;;;;8.77;8.25;;;27.30;99.90;;;;;;5072849;28;20036;-59
2021/03/08 06:02:55;;;;;;;8.82;8.13;;;27.20;99.90;;;;;;5073144;28;20025;-59
2021/03/08 06:05:49;;;;;;;8.48;7.88;;;27.10;99.90;;;;;;5072895;28;20037;-59
2021/03/08 06:08:31;;;;;;;8.88;8.18;;;27.00;99.90;;;;;;5073162;28;20029;-59
2021/03/08 06:11:12;;;;;;;8.38;7.68;;;27.00;99.90;;;;;;5073087;28;20032;-59
2021/03/08 06:13:43;;;;;;;7.40;7.00;;;26.60;99.90;;;;;;5072698;28;20074;-59
2021/03/08 06:16:15;;;;;;;;;;;26.00;99.90;;;;;;5073144;28;20130;-59
2021/03/08 06:18:46;;;;;;;17.00;15.95;;;24.60;99.90;;;;;;5072773;28;19905;-59
2021/03/08 06:21:15;;;;;;;24.00;22.70;;;24.10;99.90;;;;;;5072625;28;20078;-62
2021/03/08 06:23:44;;;;;;;21.95;20.75;;;23.50;99.90;;;;;;5072611;28;20024;-61
2021/03/08 06:26:13;;;;;;;24.60;23.25;;;23.10;99.90;;;;;;5073112;28;20092;-61
2021/03/08 06:28:41;;;;;;;23.73;22.52;;;22.80;99.90;;;;;;5076504;28;20032;-62
2021/03/08 06:31:09;;;;;;;24.02;22.83;;;22.70;99.90;;;;;;5076405;28;20021;-62
2021/03/08 06:33:40;;;;;;;25.35;24.15;;;22.70;99.90;;;;;;5076645;28;20044;-63
2021/03/08 06:36:08;;;;;;;25.60;24.30;;;22.90;99.90;;;;;;5076536;28;20096;-62
2021/03/08 06:38:37;;;;;;;26.52;25.33;;;23.00;99.90;;;;;;5076628;28;20029;-63
2021/03/08 06:41:09;;;;;;;30.52;28.88;;;22.90;99.90;;;;;;5076370;28;20085;-63
2021/03/08 06:43:38;;;;;;;213.93;71.45;;;22.80;99.90;;;;;;5076333;28;20023;-60
2021/03/08 06:46:05;;;;;;;56.55;36.30;;;23.00;99.90;;;;;;5076371;28;20109;-60
2021/03/08 06:48:33;;;;;;;29.77;26.70;;;23.30;99.90;;;;;;5076038;28;20326;-60
2021/03/08 06:51:14;;;;;;;26.98;24.27;;;23.60;99.90;;;;;;5075916;28;20021;-65
2021/03/08 06:53:43;;;;;;;23.85;21.55;;;23.90;99.90;;;;;;5075993;28;20020;-67
2021/03/08 06:56:20;;;;;;;15.88;14.98;;;24.20;99.90;;;;;;5075836;28;20012;-66
2021/03/08 06:59:08;;;;;;;14.45;13.55;;;24.30;99.90;;;;;;5075761;28;20032;-60
2021/03/08 07:01:39;;;;;;;12.35;11.65;;;24.30;99.90;;;;;;5075769;28;20373;-61
2021/03/08 07:04:21;;;;;;;12.95;12.32;;;24.40;99.90;;;;;;5075663;28;20029;-60
2021/03/08 07:07:18;;;;;;;12.25;11.45;;;24.60;99.90;;;;;;5075784;28;20039;-61
2021/03/08 07:09:50;;;;;;;11.93;11.32;;;24.80;99.90;;;;;;5063048;28;20119;-62
2021/03/08 07:12:19;;;;;;;11.82;11.23;;;25.00;99.90;;;;;;5075588;28;20081;-61
2021/03/08 07:15:00;;;;;;;12.00;11.30;;;25.00;99.90;;;;;;5075636;28;20410;-61
2021/03/08 07:17:34;;;;;;;11.40;10.70;;;25.40;99.90;;;;;;5075499;28;20021;-61
2021/03/08 07:20:06;;;;;;;11.30;10.70;;;25.60;99.90;;;;;;5075502;28;20029;-61
2021/03/08 07:22:56;;;;;;;10.32;9.80;;;25.60;99.90;;;;;;5075604;28;20029;-61
2021/03/08 07:25:32;;;;;;;9.93;9.18;;;25.70;99.90;;;;;;5075444;28;20435;-61
2021/03/08 07:28:04;;;;;;;10.10;9.45;;;25.50;99.90;;;;;;5075774;28;20025;-61
2021/03/08 07:30:38;;;;;;;10.23;9.60;;;25.20;99.90;;;;;;5075581;28;20111;-61
2021/03/08 07:33:16;;;;;;;11.32;10.63;;;25.30;99.90;;;;;;5075603;28;20078;-61
2021/03/08 07:35:53;;;;;;;11.90;11.10;;;25.40;99.90;;;;;;5075665;28;20024;-61
2021/03/08 07:38:33;;;;;;;10.50;10.00;;;25.60;99.90;;;;;;5074902;28;20032;-62
2021/03/08 07:41:14;;;;;;;11.80;11.00;;;25.60;99.90;;;;;;5075035;28;20055;-61
2021/03/08 07:43:46;;;;;;;10.18;9.57;;;25.40;99.90;;;;;;5075140;28;20025;-61
2021/03/08 07:46:32;;;;;;;9.85;9.35;;;25.30;99.90;;;;;;5075107;28;20043;-63
2021/03/08 07:49:01;;;;;;;9.93;9.25;;;25.20;99.90;;;;;;5074933;28;20024;-62
2021/03/08 07:51:28;;;;;;;10.68;9.98;;;25.00;99.90;;;;;;5075197;28;20115;-62
2021/03/08 07:54:06;;;;;;;11.02;10.35;;;25.00;99.90;;;;;;5075255;28;20093;-62
2021/03/08 07:56:35;;;;;;;11.30;10.60;;;25.00;99.90;;;;;;5074991;28;20032;-62
2021/03/08 07:59:02;;;;;;;10.18;9.52;;;24.80;99.90;;;;;;5074872;28;20166;-62
2021/03/08 08:01:30;;;;;;;10.75;9.82;;;24.80;99.90;;;;;;5074781;28;20020;-62
2021/03/08 08:03:57;;;;;;;9.63;9.02;;;24.80;99.90;;;;;;5074346;28;20024;-61
2021/03/08 08:06:26;;;;;;;10.73;9.90;;;24.80;99.90;;;;;;5073557;28;20031;-61
2021/03/08 08:08:55;;;;;;;10.60;9.98;;;24.70;99.90;;;;;;5074605;28;20028;-62
2021/03/08 08:11:29;;;;;;;10.32;9.82;;;24.70;99.90;;;;;;5074498;28;20081;-62
2021/03/08 08:14:01;;;;;;;9.88;9.25;;;24.60;99.90;;;;;;5074678;28;20465;-62
2021/03/08 08:16:38;;;;;;;9.57;8.98;;;24.70;99.90;;;;;;5074302;28;20377;-61
2021/03/08 08:19:08;;;;;;;10.05;9.25;;;24.70;99.90;;;;;;5074455;28;20017;-61
2021/03/08 08:21:37;;;;;;;10.90;9.93;;;24.70;99.90;;;;;;5073248;28;20029;-61
2021/03/08 08:24:09;;;;;;;8.98;8.38;;;24.60;99.90;;;;;;5074192;28;20029;-61
2021/03/08 08:26:36;;;;;;;9.00;8.32;;;24.70;99.90;;;;;;5074018;28;20028;-61
2021/03/08 08:29:04;;;;;;;9.60;8.80;;;24.70;99.90;;;;;;5074257;28;20020;-63
2021/03/08 08:32:07;;;;;;;9.38;8.70;;;24.70;99.90;;;;;;5074089;28;20374;-62
2021/03/08 08:34:40;;;;;;;9.50;8.80;;;24.70;99.90;;;;;;5073984;28;20051;-65
2021/03/08 08:37:14;;;;;;;9.48;8.93;;;24.70;99.90;;;;;;5073986;28;20021;-63
2021/03/08 08:40:05;;;;;;;8.65;8.05;;;24.60;99.90;;;;;;5074299;28;20400;-62
2021/03/08 08:42:34;;;;;;;9.65;8.82;;;24.50;99.90;;;;;;5066136;28;20519;-62
2021/03/08 08:45:32;;;;;;;10.60;9.68;;;24.40;99.90;;;;;;5073808;28;20108;-61
2021/03/08 08:48:10;;;;;;;9.85;9.27;;;24.30;99.90;;;;;;5073842;28;20028;-61
2021/03/08 08:50:49;;;;;;;9.20;8.70;;;24.10;99.90;;;;;;5073226;28;20035;-62
2021/03/08 08:53:35;;;;;;;9.50;9.00;;;24.10;99.90;;;;;;5073850;28;20491;-61
2021/03/08 08:56:07;;;;;;;9.93;9.20;;;24.10;99.90;;;;;;5073785;28;20257;-64
2021/03/08 08:58:44;;;;;;;10.10;9.27;;;24.00;99.90;;;;;;5072535;28;20035;-63
2021/03/08 09:01:13;;;;;;;10.00;9.40;;;23.90;99.90;;;;;;5073601;28;20028;-63
2021/03/08 09:04:02;;;;;;;10.10;9.60;;;23.90;99.90;;;;;;5073498;28;20146;-64
2021/03/08 09:06:48;;;;;;;10.10;9.47;;;23.80;99.90;;;;;;5073814;28;20372;-63
2021/03/08 09:09:38;;;;;;;10.23;9.60;;;23.80;99.90;;;;;;5074029;28;20095;-63
2021/03/08 09:12:08;;;;;;;10.48;9.80;;;23.70;99.90;;;;;;5072973;28;20171;-60
2021/03/08 09:14:47;;;;;;;10.40;9.80;;;23.60;99.90;;;;;;5073374;28;20492;-62
2021/03/08 09:17:19;;;;;;;9.65;8.98;;;23.60;99.90;;;;;;5073382;28;20017;-63
2021/03/08 09:19:57;;;;;;;10.27;9.30;;;23.50;99.90;;;;;;5073414;28;20020;-62
2021/03/08 09:22:25;;;;;;;10.27;9.63;;;23.40;99.90;;;;;;5073967;28;20056;-63
2021/03/08 09:24:53;;;;;;;10.32;9.73;;;23.40;99.90;;;;;;5073922;28;20016;-64
2021/03/08 09:27:27;;;;;;;10.60;10.00;;;23.40;99.90;;;;;;5073849;28;20103;-62
2021/03/08 09:30:01;;;;;;;10.65;10.05;;;23.40;99.90;;;;;;5072459;28;20027;-62
2021/03/08 09:32:29;;;;;;;11.50;10.75;;;23.30;99.90;;;;;;5073371;28;20024;-63
2021/03/08 09:35:10;;;;;;;11.18;10.63;;;23.20;99.90;;;;;;5072921;28;20129;-62
2021/03/08 09:37:38;;;;;;;12.10;11.30;;;23.20;99.90;;;;;;5073185;28;20346;-63
2021/03/08 09:40:07;;;;;;;12.10;11.43;;;23.20;99.90;;;;;;5073069;28;20044;-63
2021/03/08 09:42:36;;;;;;;13.05;12.02;;;23.10;99.90;;;;;;5072993;28;20176;-64
2021/03/08 09:45:24;;;;;;;12.87;11.90;;;23.10;99.90;;;;;;5073053;28;20077;-65
2021/03/08 09:47:53;;;;;;;13.25;12.55;;;23.20;99.90;;;;;;5062944;28;20266;-63
2021/03/08 09:50:35;;;;;;;13.82;13.13;;;23.10;99.90;;;;;;5073002;28;20032;-62
2021/03/08 09:53:03;;;;;;;14.90;14.00;;;23.00;99.90;;;;;;5073093;28;20103;-62
2021/03/08 09:55:36;;;;;;;16.00;14.90;;;23.00;99.90;;;;;;5073143;28;20381;-62
2021/03/08 09:58:23;;;;;;;15.18;14.38;;;22.90;99.90;;;;;;5073060;28;20019;-64
2021/03/08 10:00:52;;;;;;;15.02;14.32;;;22.90;99.90;;;;;;5074656;28;20013;-63
2021/03/08 10:03:19;;;;;;;14.25;13.55;;;22.90;99.90;;;;;;5077430;28;20021;-62
2021/03/08 10:05:53;;;;;;;14.60;13.82;;;22.90;99.90;;;;;;5077089;28;20025;-64
2021/03/08 10:08:22;;;;;;;14.25;13.45;;;22.90;99.90;;;;;;5076921;28;20070;-62
2021/03/08 10:10:52;;;;;;;14.40;13.70;;;23.00;99.90;;;;;;5076897;28;20025;-63
2021/03/08 10:13:20;;;;;;;;;;;23.00;99.90;;;;;;5077261;28;20033;-63
2021/03/08 10:15:50;;;;;;;15.18;14.48;;;22.90;99.90;;;;;;5076795;28;20045;-63
2021/03/08 10:18:26;;;;;;;15.68;14.60;;;22.90;99.90;;;;;;5076807;28;20503;-63
2021/03/08 10:20:57;;;;;;;15.43;14.70;;;22.80;99.90;;;;;;5077279;28;20047;-63
2021/03/08 10:23:26;;;;;;;15.20;14.40;;;22.80;99.90;;;;;;5076683;28;20024;-64
2021/03/08 10:26:04;;;;;;;15.50;14.73;;;22.80;99.90;;;;;;5076583;28;20051;-64
2021/03/08 10:28:52;;;;;;;15.02;14.20;;;22.70;99.90;;;;;;5076869;28;20469;-65
2021/03/08 10:31:24;;;;;;;15.90;15.00;;;22.70;99.90;;;;;;5076831;28;20028;-63
2021/03/08 10:34:07;;;;;;;16.38;15.48;;;22.70;99.90;;;;;;5076438;28;20032;-64
2021/03/08 10:36:39;;;;;;;16.67;15.73;;;22.60;99.90;;;;;;5076461;28;20041;-64
2021/03/08 10:39:14;;;;;;;16.35;15.57;;;22.60;99.90;;;;;;5076770;28;20017;-64
2021/03/08 10:41:43;;;;;;;18.02;17.10;;;22.60;99.90;;;;;;5076801;28;20060;-64
2021/03/08 10:44:19;;;;;;;18.73;17.87;;;22.50;99.90;;;;;;5076282;28;20024;-64
2021/03/08 10:46:46;;;;;;;18.48;17.58;;;22.50;99.90;;;;;;5076588;28;20025;-63
2021/03/08 10:49:14;;;;;;;18.67;17.80;;;22.50;99.90;;;;;;5074945;28;20021;-63
2021/03/08 10:51:42;;;;;;;19.48;18.63;;;22.60;99.90;;;;;;5076117;28;20020;-63
2021/03/08 10:54:14;;;;;;;19.27;18.48;;;22.50;99.90;;;;;;5076347;28;20048;-63
2021/03/08 10:56:43;;;;;;;19.17;18.33;;;22.50;99.90;;;;;;5076147;28;20473;-64
2021/03/08 10:59:29;;;;;;;19.70;18.90;;;22.50;99.90;;;;;;5076033;28;20025;-64
2021/03/08 11:02:01;;;;;;;18.85;18.08;;;22.60;99.90;;;;;;5075040;28;20370;-64
2021/03/08 11:04:28;;;;;;;18.05;17.33;;;22.60;99.90;;;;;;5075750;28;20027;-64
2021/03/08 11:06:56;;;;;;;21.10;20.00;;;22.60;99.90;;;;;;5076006;28;20025;-64
2021/03/08 11:09:31;;;;;;;20.35;19.30;;;22.60;99.90;;;;;;5075989;28;20021;-65
2021/03/08 11:12:00;;;;;;;21.52;20.52;;;22.60;99.90;;;;;;5074987;28;20105;-62
2021/03/08 11:14:28;;;;;;;21.05;19.92;;;22.50;99.90;;;;;;5075752;28;20024;-65
2021/03/08 11:16:59;;;;;;;20.80;19.90;;;22.50;99.90;;;;;;5075681;28;20393;-64
2021/03/08 11:19:29;;;;;;;21.98;20.98;;;22.50;99.90;;;;;;5075652;28;20074;-63
2021/03/08 11:22:12;;;;;;;20.70;19.67;;;22.50;99.90;;;;;;5075707;28;20155;-64
2021/03/08 11:24:51;;;;;;;20.48;19.63;;;22.50;99.90;;;;;;5075972;28;20028;-64
2021/03/08 11:27:29;;;;;;;21.83;20.80;;;22.50;99.90;;;;;;5075445;28;20032;-64
2021/03/08 11:30:07;;;;;;;23.20;22.20;;;22.40;99.90;;;;;;5074216;28;20039;-63
2021/03/08 11:32:36;;;;;;;21.73;20.60;;;22.40;99.90;;;;;;5075395;28;20028;-64
2021/03/08 11:35:06;;;;;;;21.65;20.65;;;22.40;99.90;;;;;;5075958;28;20100;-64
2021/03/08 11:37:34;;;;;;;22.23;21.23;;;22.40;99.90;;;;;;5076074;28;20392;-64
2021/03/08 11:40:07;;;;;;;22.10;21.10;;;22.40;99.90;;;;;;5075256;28;20388;-64
2021/03/08 11:42:35;;;;;;;23.08;22.10;;;22.40;99.90;;;;;;5074128;28;20124;-64
2021/03/08 11:45:02;;;;;;;22.33;21.38;;;22.40;99.90;;;;;;5075225;28;20025;-64
2021/03/08 11:47:30;;;;;;;22.80;21.75;;;22.40;99.90;;;;;;5075413;28;20025;-64
2021/03/08 11:49:58;;;;;;;23.05;21.95;;;22.30;99.90;;;;;;5075148;28;20469;-64
2021/03/08 11:52:25;;;;;;;22.80;21.70;;;22.30;99.90;;;;;;5075069;28;20028;-64
2021/03/08 11:54:53;;;;;;;24.42;23.23;;;22.30;99.90;;;;;;5075399;28;20382;-64
2021/03/08 11:57:21;;;;;;;23.75;22.65;;;22.30;99.90;;;;;;5075088;28;20024;-65
2021/03/08 11:59:48;;;;;;;23.02;21.73;;;22.30;99.90;;;;;;5075251;28;20040;-63
2021/03/08 12:02:15;;;;;;;22.05;20.95;;;22.30;99.90;;;;;;5075770;28;20029;-64
2021/03/08 12:04:43;;;;;;;23.40;22.40;;;22.20;99.90;;;;;;5074848;28;20022;-64
2021/03/08 12:07:10;;;;;;;22.25;21.25;;;22.20;99.90;;;;;;5074775;28;20025;-64
2021/03/08 12:09:37;;;;;;;22.25;21.20;;;22.10;99.90;;;;;;5074781;28;20035;-64
2021/03/08 12:12:05;;;;;;;21.95;20.95;;;22.00;99.90;;;;;;5074697;28;20021;-64
2021/03/08 12:14:33;;;;;;;23.00;21.75;;;21.90;99.90;;;;;;5073317;28;20029;-64
2021/03/08 12:17:00;;;;;;;22.75;21.65;;;21.90;99.90;;;;;;5075345;28;20020;-64
2021/03/08 12:19:28;;;;;;;24.10;23.10;;;21.90;99.90;;;;;;5074486;28;20028;-64
2021/03/08 12:21:55;;;;;;;25.10;23.80;;;21.80;99.90;;;;;;5074496;28;20078;-64
2021/03/08 12:24:23;;;;;;;24.30;23.25;;;21.80;99.90;;;;;;5073430;28;20020;-64
2021/03/08 12:26:50;;;;;;;24.25;23.15;;;21.90;99.90;;;;;;5074448;28;20035;-64
2021/03/08 12:29:17;;;;;;;25.05;23.77;;;21.90;99.90;;;;;;5074404;28;20547;-64
2021/03/08 12:31:45;;;;;;;25.67;24.38;;;21.80;99.90;;;;;;5074218;28;20597;-66
2021/03/08 12:34:12;;;;;;;26.80;25.50;;;21.80;99.90;;;;;;5074294;28;20024;-64
2021/03/08 12:36:40;;;;;;;27.52;26.10;;;21.70;99.90;;;;;;5074945;28;20081;-62
2021/03/08 12:39:07;;;;;;;26.75;25.50;;;21.60;99.90;;;;;;5074167;28;20046;-63
2021/03/08 12:41:34;;;;;;;27.52;26.13;;;21.60;99.90;;;;;;5073969;28;20420;-63
2021/03/08 12:44:02;;;;;;;28.20;26.90;;;21.60;99.90;;;;;;5074110;28;20488;-63
2021/03/08 12:46:29;;;;;;;29.35;27.95;;;21.50;99.90;;;;;;5073971;28;20032;-63
2021/03/08 12:48:56;;;;;;;29.02;27.73;;;21.50;99.90;;;;;;5073928;28;20473;-65
2021/03/08 12:51:24;;;;;;;29.38;28.05;;;21.40;99.90;;;;;;5073876;28;20047;-65
2021/03/08 12:53:51;;;;;;;28.95;27.55;;;21.50;99.90;;;;;;5073841;28;20020;-65
2021/03/08 12:56:19;;;;;;;28.38;26.88;;;21.40;99.90;;;;;;5073799;28;20025;-65
2021/03/08 12:58:46;;;;;;;28.55;27.10;;;21.50;99.90;;;;;;5073798;28;20013;-65
2021/03/08 13:01:13;;;;;;;28.42;27.02;;;21.50;99.90;;;;;;5073696;28;20021;-65
2021/03/08 13:03:41;;;;;;;28.73;27.42;;;21.50;99.90;;;;;;5072361;28;20021;-66